sensor_id;sensor_type;location;lat;lon;timestamp;P1;durP1;ratioP1;P2;durP2;ratioP2
75639;SDS011;64233;51.486;6.332;2023-04-24T00:02:06;2.97;;;1.58;;
75639;SDS011;64233;51.486;6.332;2023-04-24T00:04:35;3.53;;;1.48;;
75639;SDS011;64233;51.486;6.332;2023-04-24T00:07:01;3.45;;;1.30;;
75639;SDS011;64233;51.486;6.332;2023-04-24T00:09:27;2.97;;;1.63;;
75639;SDS011;64233;51.486;6.332;2023-04-24T00:11:52;6.28;;;2.60;;
75639;SDS011;64233;51.486;6.332;2023-04-24T00:14:18;1.67;;;1.35;;
75639;SDS011;64233;51.486;6.332;2023-04-24T00:16:44;3.00;;;1.35;;
75639;SDS011;64233;51.486;6.332;2023-04-24T00:19:09;12.63;;;3.35;;
75639;SDS011;64233;51.486;6.332;2023-04-24T00:21:36;3.33;;;1.70;;
75639;SDS011;64233;51.486;6.332;2023-04-24T00:24:02;5.85;;;2.40;;
75639;SDS011;64233;51.486;6.332;2023-04-24T00:26:27;2.33;;;1.80;;
75639;SDS011;64233;51.486;6.332;2023-04-24T00:28:53;1.92;;;1.17;;
75639;SDS011;64233;51.486;6.332;2023-04-24T00:31:18;4.85;;;2.75;;
75639;SDS011;64233;51.486;6.332;2023-04-24T00:33:44;3.80;;;2.10;;
75639;SDS011;64233;51.486;6.332;2023-04-24T00:36:09;1.25;;;1.02;;
75639;SDS011;64233;51.486;6.332;2023-04-24T00:38:34;3.65;;;1.52;;
75639;SDS011;64233;51.486;6.332;2023-04-24T00:40:59;2.15;;;1.70;;
75639;SDS011;64233;51.486;6.332;2023-04-24T00:43:25;2.17;;;1.45;;
75639;SDS011;64233;51.486;6.332;2023-04-24T00:45:50;1.55;;;1.45;;
75639;SDS011;64233;51.486;6.332;2023-04-24T00:48:16;2.35;;;2.15;;
75639;SDS011;64233;51.486;6.332;2023-04-24T00:50:41;4.85;;;3.38;;
75639;SDS011;64233;51.486;6.332;2023-04-24T00:53:07;1.30;;;1.15;;
75639;SDS011;64233;51.486;6.332;2023-04-24T00:55:32;3.80;;;1.92;;
75639;SDS011;64233;51.486;6.332;2023-04-24T00:57:57;4.13;;;1.70;;
75639;SDS011;64233;51.486;6.332;2023-04-24T01:00:23;2.53;;;1.65;;
75639;SDS011;64233;51.486;6.332;2023-04-24T01:02:49;2.83;;;2.40;;
75639;SDS011;64233;51.486;6.332;2023-04-24T01:05:14;5.13;;;2.28;;
75639;SDS011;64233;51.486;6.332;2023-04-24T01:07:43;5.00;;;2.05;;
75639;SDS011;64233;51.486;6.332;2023-04-24T01:10:10;5.95;;;2.70;;
75639;SDS011;64233;51.486;6.332;2023-04-24T01:12:37;3.50;;;2.40;;
75639;SDS011;64233;51.486;6.332;2023-04-24T01:15:02;2.83;;;1.83;;
75639;SDS011;64233;51.486;6.332;2023-04-24T01:17:28;3.53;;;1.75;;
75639;SDS011;64233;51.486;6.332;2023-04-24T01:19:54;4.60;;;3.28;;
75639;SDS011;64233;51.486;6.332;2023-04-24T01:22:21;3.45;;;2.13;;
75639;SDS011;64233;51.486;6.332;2023-04-24T01:24:47;3.22;;;1.98;;
75639;SDS011;64233;51.486;6.332;2023-04-24T01:27:13;4.53;;;2.85;;
75639;SDS011;64233;51.486;6.332;2023-04-24T01:29:38;2.83;;;2.13;;
75639;SDS011;64233;51.486;6.332;2023-04-24T01:32:05;4.85;;;3.72;;
75639;SDS011;64233;51.486;6.332;2023-04-24T01:34:30;3.58;;;1.95;;
75639;SDS011;64233;51.486;6.332;2023-04-24T01:36:56;3.03;;;2.25;;
75639;SDS011;64233;51.486;6.332;2023-04-24T01:39:22;5.95;;;3.28;;
75639;SDS011;64233;51.486;6.332;2023-04-24T01:41:51;4.32;;;2.30;;
75639;SDS011;64233;51.486;6.332;2023-04-24T01:44:17;3.05;;;2.53;;
75639;SDS011;64233;51.486;6.332;2023-04-24T01:46:43;8.63;;;4.43;;
75639;SDS011;64233;51.486;6.332;2023-04-24T01:49:08;4.97;;;3.50;;
75639;SDS011;64233;51.486;6.332;2023-04-24T01:51:34;3.25;;;2.67;;
75639;SDS011;64233;51.486;6.332;2023-04-24T01:53:59;6.05;;;3.78;;
75639;SDS011;64233;51.486;6.332;2023-04-24T01:56:25;4.55;;;1.98;;
75639;SDS011;64233;51.486;6.332;2023-04-24T01:58:53;6.95;;;3.33;;
75639;SDS011;64233;51.486;6.332;2023-04-24T02:01:20;7.18;;;3.65;;
75639;SDS011;64233;51.486;6.332;2023-04-24T02:03:45;5.30;;;3.20;;
75639;SDS011;64233;51.486;6.332;2023-04-24T02:06:11;7.53;;;3.35;;
75639;SDS011;64233;51.486;6.332;2023-04-24T02:08:36;5.82;;;4.47;;
75639;SDS011;64233;51.486;6.332;2023-04-24T02:11:01;7.22;;;4.28;;
75639;SDS011;64233;51.486;6.332;2023-04-24T02:13:27;9.98;;;5.72;;
75639;SDS011;64233;51.486;6.332;2023-04-24T02:15:52;5.72;;;3.15;;
75639;SDS011;64233;51.486;6.332;2023-04-24T02:18:18;6.85;;;3.22;;
75639;SDS011;64233;51.486;6.332;2023-04-24T02:20:43;7.28;;;3.08;;
75639;SDS011;64233;51.486;6.332;2023-04-24T02:23:08;10.50;;;4.85;;
75639;SDS011;64233;51.486;6.332;2023-04-24T02:25:34;6.50;;;3.42;;
75639;SDS011;64233;51.486;6.332;2023-04-24T02:27:59;10.55;;;5.75;;
75639;SDS011;64233;51.486;6.332;2023-04-24T02:30:24;8.07;;;4.55;;
75639;SDS011;64233;51.486;6.332;2023-04-24T02:32:50;6.85;;;3.65;;
75639;SDS011;64233;51.486;6.332;2023-04-24T02:35:15;6.93;;;2.97;;
75639;SDS011;64233;51.486;6.332;2023-04-24T02:37:40;9.82;;;4.00;;
75639;SDS011;64233;51.486;6.332;2023-04-24T02:40:06;11.90;;;6.18;;
75639;SDS011;64233;51.486;6.332;2023-04-24T02:42:32;11.15;;;5.28;;
75639;SDS011;64233;51.486;6.332;2023-04-24T02:44:57;5.07;;;2.75;;
75639;SDS011;64233;51.486;6.332;2023-04-24T02:47:23;6.70;;;4.07;;
75639;SDS011;64233;51.486;6.332;2023-04-24T02:49:48;7.05;;;3.40;;
75639;SDS011;64233;51.486;6.332;2023-04-24T02:52:13;5.60;;;4.15;;
75639;SDS011;64233;51.486;6.332;2023-04-24T02:54:39;15.90;;;6.25;;
75639;SDS011;64233;51.486;6.332;2023-04-24T02:57:05;8.75;;;5.30;;
75639;SDS011;64233;51.486;6.332;2023-04-24T02:59:31;4.38;;;3.25;;
75639;SDS011;64233;51.486;6.332;2023-04-24T03:01:56;15.20;;;7.60;;
75639;SDS011;64233;51.486;6.332;2023-04-24T03:04:22;13.13;;;6.78;;
75639;SDS011;64233;51.486;6.332;2023-04-24T03:06:47;3.80;;;2.70;;
75639;SDS011;64233;51.486;6.332;2023-04-24T03:09:13;12.40;;;6.03;;
75639;SDS011;64233;51.486;6.332;2023-04-24T03:11:38;7.55;;;4.28;;
75639;SDS011;64233;51.486;6.332;2023-04-24T03:14:03;14.02;;;6.63;;
75639;SDS011;64233;51.486;6.332;2023-04-24T03:16:29;9.27;;;5.95;;
75639;SDS011;64233;51.486;6.332;2023-04-24T03:18:54;12.02;;;5.30;;
75639;SDS011;64233;51.486;6.332;2023-04-24T03:21:19;4.78;;;3.45;;
75639;SDS011;64233;51.486;6.332;2023-04-24T03:23:45;17.10;;;7.25;;
75639;SDS011;64233;51.486;6.332;2023-04-24T03:26:10;11.95;;;5.38;;
75639;SDS011;64233;51.486;6.332;2023-04-24T03:28:35;7.57;;;3.78;;
75639;SDS011;64233;51.486;6.332;2023-04-24T03:31:02;9.38;;;3.95;;
75639;SDS011;64233;51.486;6.332;2023-04-24T03:33:28;7.72;;;4.50;;
75639;SDS011;64233;51.486;6.332;2023-04-24T03:35:53;10.10;;;6.80;;
75639;SDS011;64233;51.486;6.332;2023-04-24T03:38:18;10.23;;;3.28;;
75639;SDS011;64233;51.486;6.332;2023-04-24T03:40:43;7.13;;;4.40;;
75639;SDS011;64233;51.486;6.332;2023-04-24T03:43:09;5.35;;;3.55;;
75639;SDS011;64233;51.486;6.332;2023-04-24T03:45:34;15.55;;;4.43;;
75639;SDS011;64233;51.486;6.332;2023-04-24T03:47:59;6.05;;;4.20;;
75639;SDS011;64233;51.486;6.332;2023-04-24T03:50:25;7.13;;;3.72;;
75639;SDS011;64233;51.486;6.332;2023-04-24T03:52:51;7.00;;;5.07;;
75639;SDS011;64233;51.486;6.332;2023-04-24T03:55:16;7.60;;;4.95;;
75639;SDS011;64233;51.486;6.332;2023-04-24T03:57:42;18.88;;;7.95;;
75639;SDS011;64233;51.486;6.332;2023-04-24T04:00:07;8.43;;;4.28;;
75639;SDS011;64233;51.486;6.332;2023-04-24T04:02:33;6.57;;;3.40;;
75639;SDS011;64233;51.486;6.332;2023-04-24T04:04:59;10.82;;;4.18;;
75639;SDS011;64233;51.486;6.332;2023-04-24T04:07:24;11.32;;;6.68;;
75639;SDS011;64233;51.486;6.332;2023-04-24T04:09:50;7.10;;;4.53;;
75639;SDS011;64233;51.486;6.332;2023-04-24T04:12:15;10.57;;;5.82;;
75639;SDS011;64233;51.486;6.332;2023-04-24T04:14:41;12.60;;;5.32;;
75639;SDS011;64233;51.486;6.332;2023-04-24T04:17:06;6.97;;;4.47;;
75639;SDS011;64233;51.486;6.332;2023-04-24T04:19:31;6.85;;;5.15;;
75639;SDS011;64233;51.486;6.332;2023-04-24T04:21:57;12.25;;;6.95;;
75639;SDS011;64233;51.486;6.332;2023-04-24T04:24:22;6.05;;;3.60;;
75639;SDS011;64233;51.486;6.332;2023-04-24T04:26:49;7.15;;;2.90;;
75639;SDS011;64233;51.486;6.332;2023-04-24T04:29:16;11.63;;;5.50;;
75639;SDS011;64233;51.486;6.332;2023-04-24T04:31:43;4.85;;;2.60;;
75639;SDS011;64233;51.486;6.332;2023-04-24T04:34:08;8.48;;;4.93;;
75639;SDS011;64233;51.486;6.332;2023-04-24T04:36:34;11.60;;;5.53;;
75639;SDS011;64233;51.486;6.332;2023-04-24T04:39:01;4.30;;;2.90;;
75639;SDS011;64233;51.486;6.332;2023-04-24T04:41:27;3.22;;;2.53;;
75639;SDS011;64233;51.486;6.332;2023-04-24T04:43:53;4.38;;;3.00;;
75639;SDS011;64233;51.486;6.332;2023-04-24T04:46:18;4.40;;;2.70;;
75639;SDS011;64233;51.486;6.332;2023-04-24T04:48:43;5.82;;;3.97;;
75639;SDS011;64233;51.486;6.332;2023-04-24T04:51:09;9.93;;;4.90;;
75639;SDS011;64233;51.486;6.332;2023-04-24T04:53:34;3.70;;;3.00;;
75639;SDS011;64233;51.486;6.332;2023-04-24T04:56:00;5.70;;;2.88;;
75639;SDS011;64233;51.486;6.332;2023-04-24T04:58:25;6.22;;;3.83;;
75639;SDS011;64233;51.486;6.332;2023-04-24T05:00:51;5.25;;;3.22;;
75639;SDS011;64233;51.486;6.332;2023-04-24T05:03:17;3.15;;;2.45;;
75639;SDS011;64233;51.486;6.332;2023-04-24T05:05:42;2.30;;;1.85;;
75639;SDS011;64233;51.486;6.332;2023-04-24T05:08:08;4.88;;;3.17;;
75639;SDS011;64233;51.486;6.332;2023-04-24T05:10:33;4.70;;;3.28;;
75639;SDS011;64233;51.486;6.332;2023-04-24T05:12:59;3.15;;;1.95;;
75639;SDS011;64233;51.486;6.332;2023-04-24T05:15:25;7.18;;;4.50;;
75639;SDS011;64233;51.486;6.332;2023-04-24T05:17:51;5.38;;;3.35;;
75639;SDS011;64233;51.486;6.332;2023-04-24T05:20:16;4.15;;;2.08;;
75639;SDS011;64233;51.486;6.332;2023-04-24T05:22:42;5.72;;;2.60;;
75639;SDS011;64233;51.486;6.332;2023-04-24T05:25:08;10.95;;;3.65;;
75639;SDS011;64233;51.486;6.332;2023-04-24T05:27:33;5.63;;;3.65;;
75639;SDS011;64233;51.486;6.332;2023-04-24T05:29:58;9.25;;;4.90;;
75639;SDS011;64233;51.486;6.332;2023-04-24T05:32:24;4.97;;;2.58;;
75639;SDS011;64233;51.486;6.332;2023-04-24T05:34:49;6.40;;;4.20;;
75639;SDS011;64233;51.486;6.332;2023-04-24T05:37:15;4.40;;;2.53;;
75639;SDS011;64233;51.486;6.332;2023-04-24T05:39:40;5.00;;;2.40;;
75639;SDS011;64233;51.486;6.332;2023-04-24T05:42:06;5.55;;;3.53;;
75639;SDS011;64233;51.486;6.332;2023-04-24T05:44:31;6.90;;;3.28;;
75639;SDS011;64233;51.486;6.332;2023-04-24T05:46:57;3.22;;;1.42;;
75639;SDS011;64233;51.486;6.332;2023-04-24T05:49:22;13.20;;;4.03;;
75639;SDS011;64233;51.486;6.332;2023-04-24T05:51:48;9.15;;;5.07;;
75639;SDS011;64233;51.486;6.332;2023-04-24T05:54:13;4.75;;;3.28;;
75639;SDS011;64233;51.486;6.332;2023-04-24T05:56:38;5.82;;;2.83;;
75639;SDS011;64233;51.486;6.332;2023-04-24T05:59:04;3.67;;;2.97;;
75639;SDS011;64233;51.486;6.332;2023-04-24T06:01:30;3.78;;;2.67;;
75639;SDS011;64233;51.486;6.332;2023-04-24T06:03:56;4.63;;;2.28;;
75639;SDS011;64233;51.486;6.332;2023-04-24T06:06:21;5.82;;;3.25;;
75639;SDS011;64233;51.486;6.332;2023-04-24T06:08:47;4.40;;;2.15;;
75639;SDS011;64233;51.486;6.332;2023-04-24T06:11:12;3.22;;;2.42;;
75639;SDS011;64233;51.486;6.332;2023-04-24T06:13:37;5.32;;;2.53;;
75639;SDS011;64233;51.486;6.332;2023-04-24T06:16:02;2.72;;;1.58;;
75639;SDS011;64233;51.486;6.332;2023-04-24T06:18:29;7.00;;;3.80;;
75639;SDS011;64233;51.486;6.332;2023-04-24T06:20:55;6.55;;;4.32;;
75639;SDS011;64233;51.486;6.332;2023-04-24T06:23:20;4.55;;;2.55;;
75639;SDS011;64233;51.486;6.332;2023-04-24T06:25:46;1.92;;;1.30;;
75639;SDS011;64233;51.486;6.332;2023-04-24T06:28:11;1.98;;;1.63;;
75639;SDS011;64233;51.486;6.332;2023-04-24T06:30:37;4.50;;;2.10;;
75639;SDS011;64233;51.486;6.332;2023-04-24T06:33:02;4.30;;;2.28;;
75639;SDS011;64233;51.486;6.332;2023-04-24T06:35:28;1.20;;;0.88;;
75639;SDS011;64233;51.486;6.332;2023-04-24T06:37:53;3.50;;;1.35;;
75639;SDS011;64233;51.486;6.332;2023-04-24T06:40:21;2.70;;;2.03;;
75639;SDS011;64233;51.486;6.332;2023-04-24T06:42:46;2.08;;;1.55;;
75639;SDS011;64233;51.486;6.332;2023-04-24T06:45:11;9.13;;;2.35;;
75639;SDS011;64233;51.486;6.332;2023-04-24T06:47:36;2.33;;;1.70;;
75639;SDS011;64233;51.486;6.332;2023-04-24T06:50:03;1.63;;;1.35;;
75639;SDS011;64233;51.486;6.332;2023-04-24T06:52:28;3.15;;;1.50;;
75639;SDS011;64233;51.486;6.332;2023-04-24T06:55:01;1.98;;;1.30;;
75639;SDS011;64233;51.486;6.332;2023-04-24T06:57:27;1.50;;;1.40;;
75639;SDS011;64233;51.486;6.332;2023-04-24T06:59:52;1.60;;;1.15;;
75639;SDS011;64233;51.486;6.332;2023-04-24T07:02:18;1.52;;;0.82;;
75639;SDS011;64233;51.486;6.332;2023-04-24T07:04:43;0.98;;;0.50;;
75639;SDS011;64233;51.486;6.332;2023-04-24T07:07:08;0.90;;;0.85;;
75639;SDS011;64233;51.486;6.332;2023-04-24T07:09:37;0.70;;;0.45;;
75639;SDS011;64233;51.486;6.332;2023-04-24T07:12:05;0.85;;;0.85;;
75639;SDS011;64233;51.486;6.332;2023-04-24T07:14:32;1.10;;;0.60;;
75639;SDS011;64233;51.486;6.332;2023-04-24T07:16:57;0.50;;;0.50;;
75639;SDS011;64233;51.486;6.332;2023-04-24T07:19:23;1.15;;;1.05;;
75639;SDS011;64233;51.486;6.332;2023-04-24T07:21:48;1.15;;;0.77;;
75639;SDS011;64233;51.486;6.332;2023-04-24T07:24:13;1.02;;;0.93;;
75639;SDS011;64233;51.486;6.332;2023-04-24T07:26:39;3.80;;;1.27;;
75639;SDS011;64233;51.486;6.332;2023-04-24T07:29:05;1.65;;;1.25;;
75639;SDS011;64233;51.486;6.332;2023-04-24T07:31:30;1.30;;;1.20;;
75639;SDS011;64233;51.486;6.332;2023-04-24T07:33:56;3.28;;;1.60;;
75639;SDS011;64233;51.486;6.332;2023-04-24T07:36:23;0.95;;;0.77;;
75639;SDS011;64233;51.486;6.332;2023-04-24T07:38:49;1.20;;;0.90;;
75639;SDS011;64233;51.486;6.332;2023-04-24T07:41:15;1.85;;;1.23;;
75639;SDS011;64233;51.486;6.332;2023-04-24T07:43:40;0.80;;;0.80;;
75639;SDS011;64233;51.486;6.332;2023-04-24T07:46:09;1.42;;;1.00;;
75639;SDS011;64233;51.486;6.332;2023-04-24T07:48:35;1.02;;;0.68;;
75639;SDS011;64233;51.486;6.332;2023-04-24T07:51:00;1.08;;;0.98;;
75639;SDS011;64233;51.486;6.332;2023-04-24T07:53:25;1.00;;;0.70;;
75639;SDS011;64233;51.486;6.332;2023-04-24T07:55:50;1.40;;;0.77;;
75639;SDS011;64233;51.486;6.332;2023-04-24T07:58:16;1.20;;;0.80;;
75639;SDS011;64233;51.486;6.332;2023-04-24T08:00:41;1.00;;;0.80;;
75639;SDS011;64233;51.486;6.332;2023-04-24T08:03:06;0.60;;;0.60;;
75639;SDS011;64233;51.486;6.332;2023-04-24T08:05:32;0.88;;;0.60;;
75639;SDS011;64233;51.486;6.332;2023-04-24T08:07:57;0.43;;;0.40;;
75639;SDS011;64233;51.486;6.332;2023-04-24T08:10:23;0.45;;;0.45;;
75639;SDS011;64233;51.486;6.332;2023-04-24T08:12:49;0.60;;;0.60;;
75639;SDS011;64233;51.486;6.332;2023-04-24T08:15:15;1.17;;;0.73;;
75639;SDS011;64233;51.486;6.332;2023-04-24T08:17:41;2.75;;;0.70;;
75639;SDS011;64233;51.486;6.332;2023-04-24T08:20:06;0.98;;;0.60;;
75639;SDS011;64233;51.486;6.332;2023-04-24T08:22:38;1.15;;;0.63;;
75639;SDS011;64233;51.486;6.332;2023-04-24T08:25:03;1.08;;;0.90;;
75639;SDS011;64233;51.486;6.332;2023-04-24T08:27:29;1.95;;;1.13;;
75639;SDS011;64233;51.486;6.332;2023-04-24T08:29:54;2.22;;;1.48;;
75639;SDS011;64233;51.486;6.332;2023-04-24T08:32:20;3.10;;;1.63;;
75639;SDS011;64233;51.486;6.332;2023-04-24T08:34:45;3.92;;;2.45;;
75639;SDS011;64233;51.486;6.332;2023-04-24T08:37:11;3.70;;;2.75;;
75639;SDS011;64233;51.486;6.332;2023-04-24T08:39:37;6.13;;;3.28;;
75639;SDS011;64233;51.486;6.332;2023-04-24T08:42:02;9.05;;;4.60;;
75639;SDS011;64233;51.486;6.332;2023-04-24T08:44:32;7.80;;;4.30;;
75639;SDS011;64233;51.486;6.332;2023-04-24T08:46:59;6.18;;;3.15;;
75639;SDS011;64233;51.486;6.332;2023-04-24T08:49:26;12.52;;;3.75;;
75639;SDS011;64233;51.486;6.332;2023-04-24T08:51:53;5.03;;;3.28;;
75639;SDS011;64233;51.486;6.332;2023-04-24T08:54:18;11.68;;;5.03;;
75639;SDS011;64233;51.486;6.332;2023-04-24T08:56:44;5.50;;;3.65;;
75639;SDS011;64233;51.486;6.332;2023-04-24T08:59:12;7.80;;;4.05;;
75639;SDS011;64233;51.486;6.332;2023-04-24T09:01:38;4.97;;;4.22;;
75639;SDS011;64233;51.486;6.332;2023-04-24T09:04:05;5.97;;;3.55;;
75639;SDS011;64233;51.486;6.332;2023-04-24T09:06:32;7.38;;;4.05;;
75639;SDS011;64233;51.486;6.332;2023-04-24T09:09:01;7.55;;;4.38;;
75639;SDS011;64233;51.486;6.332;2023-04-24T09:11:29;9.07;;;4.15;;
75639;SDS011;64233;51.486;6.332;2023-04-24T09:13:55;8.38;;;4.18;;
75639;SDS011;64233;51.486;6.332;2023-04-24T09:16:21;8.70;;;4.25;;
75639;SDS011;64233;51.486;6.332;2023-04-24T09:18:49;6.80;;;3.90;;
75639;SDS011;64233;51.486;6.332;2023-04-24T09:21:14;13.77;;;3.65;;
75639;SDS011;64233;51.486;6.332;2023-04-24T09:23:39;8.60;;;3.45;;
75639;SDS011;64233;51.486;6.332;2023-04-24T09:26:05;8.27;;;4.13;;
75639;SDS011;64233;51.486;6.332;2023-04-24T09:28:32;9.20;;;3.88;;
75639;SDS011;64233;51.486;6.332;2023-04-24T09:33:31;6.65;;;3.35;;
75639;SDS011;64233;51.486;6.332;2023-04-24T09:35:57;6.25;;;2.58;;
75639;SDS011;64233;51.486;6.332;2023-04-24T09:38:30;7.78;;;3.13;;
75639;SDS011;64233;51.486;6.332;2023-04-24T09:41:08;5.25;;;3.10;;
75639;SDS011;64233;51.486;6.332;2023-04-24T09:43:38;6.07;;;2.55;;
75639;SDS011;64233;51.486;6.332;2023-04-24T09:46:04;8.32;;;2.28;;
75639;SDS011;64233;51.486;6.332;2023-04-24T09:48:35;4.90;;;2.67;;
75639;SDS011;64233;51.486;6.332;2023-04-24T09:51:02;3.25;;;1.63;;
75639;SDS011;64233;51.486;6.332;2023-04-24T09:53:29;5.90;;;2.42;;
75639;SDS011;64233;51.486;6.332;2023-04-24T09:55:55;3.97;;;2.08;;
75639;SDS011;64233;51.486;6.332;2023-04-24T09:58:28;9.82;;;2.78;;
75639;SDS011;64233;51.486;6.332;2023-04-24T10:00:54;8.43;;;2.85;;
75639;SDS011;64233;51.486;6.332;2023-04-24T10:03:21;10.27;;;2.88;;
75639;SDS011;64233;51.486;6.332;2023-04-24T10:05:51;8.05;;;3.10;;
75639;SDS011;64233;51.486;6.332;2023-04-24T10:08:16;8.00;;;2.80;;
75639;SDS011;64233;51.486;6.332;2023-04-24T10:10:43;4.30;;;2.22;;
75639;SDS011;64233;51.486;6.332;2023-04-24T10:13:09;8.50;;;3.42;;
75639;SDS011;64233;51.486;6.332;2023-04-24T10:15:35;4.43;;;1.88;;
75639;SDS011;64233;51.486;6.332;2023-04-24T10:18:01;12.98;;;3.05;;
75639;SDS011;64233;51.486;6.332;2023-04-24T10:20:30;5.15;;;2.15;;
75639;SDS011;64233;51.486;6.332;2023-04-24T10:22:56;8.65;;;2.92;;
75639;SDS011;64233;51.486;6.332;2023-04-24T10:25:24;11.07;;;3.03;;
75639;SDS011;64233;51.486;6.332;2023-04-24T10:27:51;4.63;;;1.92;;
75639;SDS011;64233;51.486;6.332;2023-04-24T10:30:18;7.10;;;2.70;;
75639;SDS011;64233;51.486;6.332;2023-04-24T10:32:45;6.15;;;2.13;;
75639;SDS011;64233;51.486;6.332;2023-04-24T10:35:14;5.82;;;2.90;;
75639;SDS011;64233;51.486;6.332;2023-04-24T10:37:50;7.70;;;2.55;;
75639;SDS011;64233;51.486;6.332;2023-04-24T10:40:25;3.97;;;2.58;;
75639;SDS011;64233;51.486;6.332;2023-04-24T10:42:52;8.23;;;2.67;;
75639;SDS011;64233;51.486;6.332;2023-04-24T10:45:22;4.75;;;2.00;;
75639;SDS011;64233;51.486;6.332;2023-04-24T10:47:58;3.42;;;1.58;;
75639;SDS011;64233;51.486;6.332;2023-04-24T10:50:29;3.50;;;2.28;;
75639;SDS011;64233;51.486;6.332;2023-04-24T10:53:06;5.32;;;2.28;;
75639;SDS011;64233;51.486;6.332;2023-04-24T10:58:15;8.43;;;2.75;;
75639;SDS011;64233;51.486;6.332;2023-04-24T11:00:42;8.60;;;2.88;;
75639;SDS011;64233;51.486;6.332;2023-04-24T11:03:25;3.60;;;1.80;;
75639;SDS011;64233;51.486;6.332;2023-04-24T11:06:25;8.23;;;2.38;;
75639;SDS011;64233;51.486;6.332;2023-04-24T11:08:53;6.00;;;2.60;;
75639;SDS011;64233;51.486;6.332;2023-04-24T11:11:28;11.45;;;2.90;;
75639;SDS011;64233;51.486;6.332;2023-04-24T11:18:51;7.28;;;2.20;;
75639;SDS011;64233;51.486;6.332;2023-04-24T11:21:19;3.33;;;1.52;;
75639;SDS011;64233;51.486;6.332;2023-04-24T11:23:45;0.93;;;0.80;;
75639;SDS011;64233;51.486;6.332;2023-04-24T11:26:12;5.13;;;3.35;;
75639;SDS011;64233;51.486;6.332;2023-04-24T11:28:47;8.50;;;2.80;;
75639;SDS011;64233;51.486;6.332;2023-04-24T11:34:07;2.40;;;1.95;;
75639;SDS011;64233;51.486;6.332;2023-04-24T11:36:37;3.33;;;2.13;;
75639;SDS011;64233;51.486;6.332;2023-04-24T11:39:03;1.90;;;1.08;;
75639;SDS011;64233;51.486;6.332;2023-04-24T11:41:28;5.35;;;1.63;;
75639;SDS011;64233;51.486;6.332;2023-04-24T11:43:54;0.98;;;0.90;;
75639;SDS011;64233;51.486;6.332;2023-04-24T11:46:20;4.20;;;1.15;;
75639;SDS011;64233;51.486;6.332;2023-04-24T11:48:46;7.70;;;2.30;;
75639;SDS011;64233;51.486;6.332;2023-04-24T11:51:12;2.08;;;1.45;;
75639;SDS011;64233;51.486;6.332;2023-04-24T11:53:38;3.58;;;2.05;;
75639;SDS011;64233;51.486;6.332;2023-04-24T11:56:03;2.17;;;1.50;;
75639;SDS011;64233;51.486;6.332;2023-04-24T11:58:34;5.93;;;1.60;;
75639;SDS011;64233;51.486;6.332;2023-04-24T12:01:09;1.90;;;0.98;;
75639;SDS011;64233;51.486;6.332;2023-04-24T12:03:34;5.85;;;1.50;;
75639;SDS011;64233;51.486;6.332;2023-04-24T12:06:06;2.40;;;1.52;;
75639;SDS011;64233;51.486;6.332;2023-04-24T12:08:32;6.50;;;1.80;;
75639;SDS011;64233;51.486;6.332;2023-04-24T12:11:02;1.30;;;1.15;;
75639;SDS011;64233;51.486;6.332;2023-04-24T12:13:29;3.03;;;2.00;;
75639;SDS011;64233;51.486;6.332;2023-04-24T12:15:56;6.63;;;2.13;;
75639;SDS011;64233;51.486;6.332;2023-04-24T12:18:22;2.80;;;1.95;;
75639;SDS011;64233;51.486;6.332;2023-04-24T12:20:49;4.15;;;1.58;;
75639;SDS011;64233;51.486;6.332;2023-04-24T12:23:14;4.75;;;1.50;;
75639;SDS011;64233;51.486;6.332;2023-04-24T12:25:40;1.95;;;1.48;;
75639;SDS011;64233;51.486;6.332;2023-04-24T12:30:32;1.73;;;0.87;;
75639;SDS011;64233;51.486;6.332;2023-04-24T12:33:04;0.88;;;0.65;;
75639;SDS011;64233;51.486;6.332;2023-04-24T12:35:30;0.93;;;0.85;;
75639;SDS011;64233;51.486;6.332;2023-04-24T12:38:08;1.10;;;1.00;;
75639;SDS011;64233;51.486;6.332;2023-04-24T12:40:34;1.58;;;0.82;;
75639;SDS011;64233;51.486;6.332;2023-04-24T12:43:00;1.55;;;0.95;;
75639;SDS011;64233;51.486;6.332;2023-04-24T12:45:26;1.25;;;0.82;;
75639;SDS011;64233;51.486;6.332;2023-04-24T12:47:52;3.63;;;0.90;;
75639;SDS011;64233;51.486;6.332;2023-04-24T12:50:18;1.50;;;0.85;;
75639;SDS011;64233;51.486;6.332;2023-04-24T12:52:44;3.42;;;1.02;;
75639;SDS011;64233;51.486;6.332;2023-04-24T12:55:10;1.00;;;0.88;;
75639;SDS011;64233;51.486;6.332;2023-04-24T12:57:37;2.38;;;1.08;;
75639;SDS011;64233;51.486;6.332;2023-04-24T13:00:05;1.02;;;0.93;;
75639;SDS011;64233;51.486;6.332;2023-04-24T13:02:31;3.58;;;1.08;;
75639;SDS011;64233;51.486;6.332;2023-04-24T13:04:58;1.23;;;0.93;;
75639;SDS011;64233;51.486;6.332;2023-04-24T13:07:24;4.40;;;0.90;;
75639;SDS011;64233;51.486;6.332;2023-04-24T13:09:50;1.38;;;0.88;;
75639;SDS011;64233;51.486;6.332;2023-04-24T13:12:16;2.15;;;1.13;;
75639;SDS011;64233;51.486;6.332;2023-04-24T13:14:42;2.38;;;1.20;;
75639;SDS011;64233;51.486;6.332;2023-04-24T13:17:07;2.78;;;1.70;;
75639;SDS011;64233;51.486;6.332;2023-04-24T13:19:37;2.17;;;1.25;;
75639;SDS011;64233;51.486;6.332;2023-04-24T13:22:03;1.50;;;1.10;;
75639;SDS011;64233;51.486;6.332;2023-04-24T13:24:29;2.10;;;1.05;;
75639;SDS011;64233;51.486;6.332;2023-04-24T13:26:56;1.92;;;1.45;;
75639;SDS011;64233;51.486;6.332;2023-04-24T13:29:21;1.95;;;0.90;;
75639;SDS011;64233;51.486;6.332;2023-04-24T13:31:49;3.83;;;1.20;;
75639;SDS011;64233;51.486;6.332;2023-04-24T13:34:15;5.47;;;1.48;;
75639;SDS011;64233;51.486;6.332;2023-04-24T13:36:41;0.93;;;0.90;;
75639;SDS011;64233;51.486;6.332;2023-04-24T13:39:06;4.95;;;1.88;;
75639;SDS011;64233;51.486;6.332;2023-04-24T13:41:32;6.55;;;2.30;;
75639;SDS011;64233;51.486;6.332;2023-04-24T13:43:58;1.67;;;0.90;;
75639;SDS011;64233;51.486;6.332;2023-04-24T13:46:23;3.05;;;1.40;;
75639;SDS011;64233;51.486;6.332;2023-04-24T13:48:48;5.70;;;1.23;;
75639;SDS011;64233;51.486;6.332;2023-04-24T13:51:14;0.95;;;0.85;;
75639;SDS011;64233;51.486;6.332;2023-04-24T13:53:39;2.08;;;1.13;;
75639;SDS011;64233;51.486;6.332;2023-04-24T13:56:05;3.05;;;1.08;;
75639;SDS011;64233;51.486;6.332;2023-04-24T13:58:31;6.93;;;1.55;;
75639;SDS011;64233;51.486;6.332;2023-04-24T14:00:57;1.02;;;0.75;;
75639;SDS011;64233;51.486;6.332;2023-04-24T14:03:22;1.45;;;0.98;;
75639;SDS011;64233;51.486;6.332;2023-04-24T14:05:48;3.70;;;1.25;;
75639;SDS011;64233;51.486;6.332;2023-04-24T14:08:13;1.13;;;0.90;;
75639;SDS011;64233;51.486;6.332;2023-04-24T14:10:38;1.60;;;1.25;;
75639;SDS011;64233;51.486;6.332;2023-04-24T14:13:04;2.00;;;1.35;;
75639;SDS011;64233;51.486;6.332;2023-04-24T14:15:29;1.02;;;0.98;;
75639;SDS011;64233;51.486;6.332;2023-04-24T14:17:54;1.85;;;1.13;;
75639;SDS011;64233;51.486;6.332;2023-04-24T14:20:20;1.20;;;0.95;;
75639;SDS011;64233;51.486;6.332;2023-04-24T14:22:45;2.38;;;1.08;;
75639;SDS011;64233;51.486;6.332;2023-04-24T14:25:11;2.70;;;1.38;;
75639;SDS011;64233;51.486;6.332;2023-04-24T14:27:36;5.65;;;2.03;;
75639;SDS011;64233;51.486;6.332;2023-04-24T14:30:02;0.80;;;0.80;;
75639;SDS011;64233;51.486;6.332;2023-04-24T14:32:27;0.85;;;0.82;;
75639;SDS011;64233;51.486;6.332;2023-04-24T14:34:53;3.42;;;1.00;;
75639;SDS011;64233;51.486;6.332;2023-04-24T14:37:18;3.65;;;1.25;;
75639;SDS011;64233;51.486;6.332;2023-04-24T14:39:44;0.80;;;0.80;;
75639;SDS011;64233;51.486;6.332;2023-04-24T14:42:10;1.23;;;0.85;;
75639;SDS011;64233;51.486;6.332;2023-04-24T14:44:35;3.33;;;1.58;;
75639;SDS011;64233;51.486;6.332;2023-04-24T14:47:01;2.35;;;1.30;;
75639;SDS011;64233;51.486;6.332;2023-04-24T14:49:26;3.13;;;0.95;;
75639;SDS011;64233;51.486;6.332;2023-04-24T14:51:51;4.20;;;1.58;;
75639;SDS011;64233;51.486;6.332;2023-04-24T14:54:17;2.60;;;1.08;;
75639;SDS011;64233;51.486;6.332;2023-04-24T14:56:42;2.10;;;0.82;;